Airfield :
LOGIN :

Register | Disclaimer

   EN    FR    IT 

 










Legend :    VFR   Marginal VFR   IFR   Intensive IFR   Very Intensive IFR
Visi :
Ceiling :
>= 8 km
>= 3000ft
5 to 8 km
1000 to 3000 ft
1500m to 5 km
500 to 1000 ft
800 to 1500m
200 to 500 ft
< 800m
< 200 ft
Symbols :   Thunderstorms  Fog  Heavy snow  Heavy precipitations  Wind > 20 kt
SIGMETs :     Misc.  Thunderstorms  Icing  Turbulence  Mountain Waves  Volcanic Ashes







- Airport Elevation : 13 ft
- IATA code : OST


EBOS - Oostend bruges Int.

CURRENT METAR :
  • 262250Z 04005KT 360V120 9999 SCT028 05/01 Q1018 NOSIG

EXPIRED METARs :
  • 262220Z 03011KT 9999 FEW007 BKN028 05/02 Q1018 NOSIG
  • 262150Z 01011KT 9999 FEW026 07/M02 Q1018 NOSIG
  • 262120Z 01012KT 9999 FEW028 07/01 Q1018 NOSIG
  • 262050Z 36009KT 9999 FEW026 07/01 Q1017 NOSIG
  • 262020Z 01011KT 9999 FEW026 06/00 Q1017 NOSIG

TAF TAF EBOS
Valid from the 26 at 18:00 until the 28 at 00:00 UTC


261713Z 2618/2724 35012KT 9999 FEW025CB SCT040
PROB30
TEMPO 2618/2712 4000 SHRAGS
BECMG 2712/2714 29010KT
BECMG 2718/2720 23005KT
PROB40
TEMPO 2718/2724 4000 RA
No reported NOTAMs for that airfield.



MET'MAP, your aeronautical weather chart ! - Copyright ORBIFLY December 2007 - Disclaimer

ORBIFLY MET'MAP TEAM :

Programming & Development : Alexandra Zaïnal
Concept & Development : Baudouin d'Aumeries
Co-Development & Prog : Marc-Olivier Méhu
Technical & hardware support : Manuel Goepfert

Contact : metmap@orbifly.com




SOURCES & CREDITS :

   NOAA